Liguria — IRKJ — position and weather

sailwx.info

Track history (hours):
 
Tides and Currents Weather Stations Pressure Air Temp Water Temp Dewpoint Dewpoint Depression Visibility Wind Speed Wind Dir Waves Ship Positions

Liguria

Last reported at 2016-Feb-08 12:29 UTC. Time now 2016-Feb-08 14:25 UTC.
Position N 44°18' E 008°29'.

Length 30 m.

Type: Tug. MMSI: 247228500.

Date/timePositionNaut miles runAvg speedWind from/ knotsBaromVisibWave heightAir tempDewpointWater temp
2016-Feb-08 12:29N 44°18' E 008°29'0 0.0
2016-Feb-08 11:29N 44°18' E 008°29'0 0.0
2016-Feb-08 10:29N 44°18' E 008°29'0 0.0
2016-Feb-08 09:24N 44°18' E 008°29'0 0.0
2016-Feb-08 08:29N 44°18' E 008°29'0 0.0
2016-Feb-08 07:12N 44°18' E 008°29'0 0.0
2016-Feb-08 06:30N 44°18' E 008°29'1 0.6
2016-Feb-08 05:31N 44°19' E 008°30'1 0.0
2016-Feb-07 13:19N 44°18' E 008°29'0 0.0
2016-Feb-07 12:31N 44°18' E 008°29'0 0.0
2016-Feb-07 11:31N 44°18' E 008°29'0 0.0
2016-Feb-07 10:31N 44°18' E 008°29'0 0.0
2016-Feb-07 09:31N 44°18' E 008°29'0 0.0
2016-Feb-07 08:31N 44°18' E 008°29'0 0.0
2016-Feb-07 07:31N 44°18' E 008°29'0 0.0
2016-Feb-07 06:31N 44°18' E 008°29'0 0.0
2016-Feb-07 05:31N 44°18' E 008°29'0 0.0
2016-Feb-06 12:33N 44°18' E 008°29'0 0.0
2016-Feb-06 11:27N 44°18' E 008°29'0 0.0
2016-Feb-06 10:33N 44°18' E 008°29'0 0.0
2016-Feb-06 09:33N 44°18' E 008°29'0 0.0
2016-Feb-06 08:33N 44°18' E 008°29'0 0.0
2016-Feb-06 07:33N 44°18' E 008°29'0 0.0
2016-Feb-06 06:33N 44°18' E 008°29'0 0.0
2016-Feb-06 05:33N 44°18' E 008°29'0 0.0
2016-Feb-06 04:33N 44°18' E 008°29'0 0.0
2016-Feb-06 03:33N 44°18' E 008°29'0 0.0
2016-Feb-06 02:33N 44°18' E 008°29'0 0.0
2016-Feb-06 01:33N 44°18' E 008°29'0 0.0
2016-Feb-06 00:21N 44°18' E 008°29'0 0.0
2016-Feb-05 23:33N 44°18' E 008°29'0 0.0
2016-Feb-05 13:26N 44°18' E 008°29'0 0.0
2016-Feb-05 12:32N 44°18' E 008°29'0 0.0
2016-Feb-05 11:32N 44°18' E 008°29'0 0.0
2016-Feb-05 10:32N 44°18' E 008°29'0 0.0
2016-Feb-05 09:32N 44°18' E 008°29'0 0.0
2016-Feb-05 08:32N 44°18' E 008°29'0 0.0
2016-Feb-05 07:32N 44°18' E 008°29'0 0.0
2016-Feb-05 06:32N 44°18' E 008°29'0 0.4
2016-Feb-05 05:33N 44°19' E 008°30'0 0.4
2016-Feb-05 04:32N 44°18' E 008°29'0 0.0
2016-Feb-04 19:33N 44°19' E 008°30'0 0.4
2016-Feb-04 18:33N 44°18' E 008°29'0 0.0
2016-Feb-04 16:33N 44°18' E 008°29'0 0.0
2016-Feb-04 14:32N 44°18' E 008°29'1 0.6
2016-Feb-04 13:33N 44°19' E 008°30'0 0.1
2016-Feb-04 09:34N 44°19' E 008°29'2 2.4
2016-Feb-04 08:33N 44°17' E 008°28'1 0.7
2016-Feb-04 07:30N 44°16' E 008°28'1 0.6
2016-Feb-04 06:32N 44°16' E 008°27'0 0.0
2016-Feb-04 05:32N 44°16' E 008°27'0 0.0
2016-Feb-04 04:29N 44°16' E 008°27'0 0.0
2016-Feb-04 03:29N 44°16' E 008°27'0 0.0
2016-Feb-04 02:29N 44°16' E 008°27'0 0.0
2016-Feb-04 01:29N 44°16' E 008°27'3 3.3
2016-Feb-04 00:33N 44°18' E 008°30'1 0.7
2016-Feb-03 23:33N 44°19' E 008°30'0 0.3
2016-Feb-03 22:28N 44°18' E 008°29'0 0.0
2016-Feb-03 21:28N 44°18' E 008°29'0 0.0
2016-Feb-03 20:25N 44°18' E 008°29'0 0.0
2016-Feb-03 19:28N 44°18' E 008°29'0 0.5
2016-Feb-03 18:33N 44°19' E 008°30'0 0.4
2016-Feb-03 17:31N 44°18' E 008°29'0 0.0
2016-Feb-03 16:31N 44°18' E 008°29'0 0.0
2016-Feb-03 15:31N 44°18' E 008°29'0 0.0
2016-Feb-03 14:34N 44°18' E 008°29'0 0.0
2016-Feb-03 13:31N 44°18' E 008°29'0 0.0
2016-Feb-03 12:31N 44°18' E 008°29'0 0.0
2016-Feb-03 11:16N 44°18' E 008°29'0 0.0
2016-Feb-03 08:17N 44°18' E 008°29'1 0.8
2016-Feb-03 07:33N 44°19' E 008°30'0 0.1
2016-Feb-03 06:33N 44°19' E 008°30'0 0.2
2016-Feb-03 05:33N 44°19' E 008°30'1 0.0
2016-Feb-02 13:16N 44°18' E 008°29'0 0.0
2016-Feb-02 12:08N 44°18' E 008°29'0 0.0
2016-Feb-02 11:23N 44°18' E 008°29'0 0.0
2016-Feb-02 10:29N 44°18' E 008°29'0 0.0
2016-Feb-02 09:14N 44°18' E 008°29'0 0.0
2016-Feb-02 08:29N 44°18' E 008°29'0 0.0
2016-Feb-02 07:29N 44°18' E 008°29'1 0.3
2016-Feb-02 05:32N 44°19' E 008°30'1 0.1
2016-Feb-01 22:18N 44°18' E 008°29'0 0.0
2016-Feb-01 20:18N 44°18' E 008°29'0 0.0
2016-Feb-01 17:06N 44°18' E 008°29'0 0.0
2016-Feb-01 16:24N 44°18' E 008°29'0 0.0
2016-Feb-01 15:12N 44°18' E 008°29'0 0.0
2016-Feb-01 12:30N 44°18' E 008°29'0 0.0
2016-Feb-01 07:18N 44°18' E 008°29'0 0.0
2016-Jan-31 18:31N 44°18' E 008°29'0 0.0
2016-Jan-31 16:31N 44°18' E 008°29'0 0.0
2016-Jan-31 15:31N 44°18' E 008°29'0 0.0
2016-Jan-31 14:31N 44°18' E 008°29'0 0.0
2016-Jan-31 12:19N 44°18' E 008°29'0 0.0
2016-Jan-31 11:22N 44°18' E 008°29'0 0.0
2016-Jan-31 09:13N 44°18' E 008°29'0 0.0
2016-Jan-31 08:25N 44°18' E 008°29'0 0.0
2016-Jan-31 07:20N 44°18' E 008°29'1 1.1
2016-Jan-31 06:32N 44°19' E 008°30'1 0.0
2016-Jan-29 15:32N 44°18' E 008°29'0 0.0
2016-Jan-29 13:28N 44°18' E 008°29'  
Track history (hours):
 
Tides and Currents Weather Stations Pressure Air Temp Water Temp Dewpoint Dewpoint Depression Visibility Wind Speed Wind Dir Waves Ship Positions

Liguria

Last reported at 2016-Feb-08 12:29 UTC. Time now 2016-Feb-08 14:25 UTC.
Position N 44°18' E 008°29'.

Length 30 m.

Type: Tug. MMSI: 247228500.

Date/timePositionNaut miles runAvg speedWind from/ knotsBaromVisibWave heightAir tempDewpointWater temp
2016-Feb-08 12:29N 44°18' E 008°29'0 0.0
2016-Feb-08 11:29N 44°18' E 008°29'0 0.0
2016-Feb-08 10:29N 44°18' E 008°29'0 0.0
2016-Feb-08 09:24N 44°18' E 008°29'0 0.0
2016-Feb-08 08:29N 44°18' E 008°29'0 0.0
2016-Feb-08 07:12N 44°18' E 008°29'0 0.0
2016-Feb-08 06:30N 44°18' E 008°29'1 0.6
2016-Feb-08 05:31N 44°19' E 008°30'1 0.0
2016-Feb-07 13:19N 44°18' E 008°29'0 0.0
2016-Feb-07 12:31N 44°18' E 008°29'0 0.0
2016-Feb-07 11:31N 44°18' E 008°29'0 0.0
2016-Feb-07 10:31N 44°18' E 008°29'0 0.0
2016-Feb-07 09:31N 44°18' E 008°29'0 0.0
2016-Feb-07 08:31N 44°18' E 008°29'0 0.0
2016-Feb-07 07:31N 44°18' E 008°29'0 0.0
2016-Feb-07 06:31N 44°18' E 008°29'0 0.0
2016-Feb-07 05:31N 44°18' E 008°29'0 0.0
2016-Feb-06 12:33N 44°18' E 008°29'0 0.0
2016-Feb-06 11:27N 44°18' E 008°29'0 0.0
2016-Feb-06 10:33N 44°18' E 008°29'0 0.0
2016-Feb-06 09:33N 44°18' E 008°29'0 0.0
2016-Feb-06 08:33N 44°18' E 008°29'0 0.0
2016-Feb-06 07:33N 44°18' E 008°29'0 0.0
2016-Feb-06 06:33N 44°18' E 008°29'0 0.0
2016-Feb-06 05:33N 44°18' E 008°29'0 0.0
2016-Feb-06 04:33N 44°18' E 008°29'0 0.0
2016-Feb-06 03:33N 44°18' E 008°29'0 0.0
2016-Feb-06 02:33N 44°18' E 008°29'0 0.0
2016-Feb-06 01:33N 44°18' E 008°29'0 0.0
2016-Feb-06 00:21N 44°18' E 008°29'0 0.0
2016-Feb-05 23:33N 44°18' E 008°29'0 0.0
2016-Feb-05 13:26N 44°18' E 008°29'0 0.0
2016-Feb-05 12:32N 44°18' E 008°29'0 0.0
2016-Feb-05 11:32N 44°18' E 008°29'0 0.0
2016-Feb-05 10:32N 44°18' E 008°29'0 0.0
2016-Feb-05 09:32N 44°18' E 008°29'0 0.0
2016-Feb-05 08:32N 44°18' E 008°29'0 0.0
2016-Feb-05 07:32N 44°18' E 008°29'0 0.0
2016-Feb-05 06:32N 44°18' E 008°29'0 0.4
2016-Feb-05 05:33N 44°19' E 008°30'0 0.4
2016-Feb-05 04:32N 44°18' E 008°29'0 0.0
2016-Feb-04 19:33N 44°19' E 008°30'0 0.4
2016-Feb-04 18:33N 44°18' E 008°29'0 0.0
2016-Feb-04 16:33N 44°18' E 008°29'0 0.0
2016-Feb-04 14:32N 44°18' E 008°29'1 0.6
2016-Feb-04 13:33N 44°19' E 008°30'0 0.1
2016-Feb-04 09:34N 44°19' E 008°29'2 2.4
2016-Feb-04 08:33N 44°17' E 008°28'1 0.7
2016-Feb-04 07:30N 44°16' E 008°28'1 0.6
2016-Feb-04 06:32N 44°16' E 008°27'0 0.0
2016-Feb-04 05:32N 44°16' E 008°27'0 0.0
2016-Feb-04 04:29N 44°16' E 008°27'0 0.0
2016-Feb-04 03:29N 44°16' E 008°27'0 0.0
2016-Feb-04 02:29N 44°16' E 008°27'0 0.0
2016-Feb-04 01:29N 44°16' E 008°27'3 3.3
2016-Feb-04 00:33N 44°18' E 008°30'1 0.7
2016-Feb-03 23:33N 44°19' E 008°30'0 0.3
2016-Feb-03 22:28N 44°18' E 008°29'0 0.0
2016-Feb-03 21:28N 44°18' E 008°29'0 0.0
2016-Feb-03 20:25N 44°18' E 008°29'0 0.0
2016-Feb-03 19:28N 44°18' E 008°29'0 0.5
2016-Feb-03 18:33N 44°19' E 008°30'0 0.4
2016-Feb-03 17:31N 44°18' E 008°29'0 0.0
2016-Feb-03 16:31N 44°18' E 008°29'0 0.0
2016-Feb-03 15:31N 44°18' E 008°29'0 0.0
2016-Feb-03 14:34N 44°18' E 008°29'0 0.0
2016-Feb-03 13:31N 44°18' E 008°29'0 0.0
2016-Feb-03 12:31N 44°18' E 008°29'0 0.0
2016-Feb-03 11:16N 44°18' E 008°29'0 0.0
2016-Feb-03 08:17N 44°18' E 008°29'1 0.8
2016-Feb-03 07:33N 44°19' E 008°30'0 0.1
2016-Feb-03 06:33N 44°19' E 008°30'0 0.2
2016-Feb-03 05:33N 44°19' E 008°30'1 0.0
2016-Feb-02 13:16N 44°18' E 008°29'0 0.0
2016-Feb-02 12:08N 44°18' E 008°29'0 0.0
2016-Feb-02 11:23N 44°18' E 008°29'0 0.0
2016-Feb-02 10:29N 44°18' E 008°29'0 0.0
2016-Feb-02 09:14N 44°18' E 008°29'0 0.0
2016-Feb-02 08:29N 44°18' E 008°29'0 0.0
2016-Feb-02 07:29N 44°18' E 008°29'1 0.3
2016-Feb-02 05:32N 44°19' E 008°30'1 0.1
2016-Feb-01 22:18N 44°18' E 008°29'0 0.0
2016-Feb-01 20:18N 44°18' E 008°29'0 0.0
2016-Feb-01 17:06N 44°18' E 008°29'0 0.0
2016-Feb-01 16:24N 44°18' E 008°29'0 0.0
2016-Feb-01 15:12N 44°18' E 008°29'0 0.0
2016-Feb-01 12:30N 44°18' E 008°29'0 0.0
2016-Feb-01 07:18N 44°18' E 008°29'0 0.0
2016-Jan-31 18:31N 44°18' E 008°29'0 0.0
2016-Jan-31 16:31N 44°18' E 008°29'0 0.0
2016-Jan-31 15:31N 44°18' E 008°29'0 0.0
2016-Jan-31 14:31N 44°18' E 008°29'0 0.0
2016-Jan-31 12:19N 44°18' E 008°29'0 0.0
2016-Jan-31 11:22N 44°18' E 008°29'0 0.0
2016-Jan-31 09:13N 44°18' E 008°29'0 0.0
2016-Jan-31 08:25N 44°18' E 008°29'0 0.0
2016-Jan-31 07:20N 44°18' E 008°29'1 1.1
2016-Jan-31 06:32N 44°19' E 008°30'1 0.0
2016-Jan-29 15:32N 44°18' E 008°29'0 0.0
2016-Jan-29 13:28N 44°18' E 008°29'  

Dump ship's entire track history